Historyczne dane pomiarowe

Dodano dane terminowe – wersja testowa.

Dane z okresu 1951-2019

Wersja bazy: 1.34 [2019-03-16, lista zmian], aktualizacja planowana na 2019-04-15

Dane meteo z obszaru Polski uzyskane na podstawie danych udostępnionych przez Instytut Meteorologii i Gospodarki Wodnej – Państwowy Instytut Badawczy.

 

Wybierz Datę:    

       

TemperaturaWilgotnośćWiatrCiśnienieOpadyŚniegCzas trwania zjawisk
 Stacja t tx tn tng RH VA  wxwx mslp ppp RRR   cm mm wxwxwxwxwxwxwx
1995-04-17 4.2 9.0 -0.7 -4.5 84.0- 7.3 0.7---- 0.0------------
1995-04-18 5.6 10.3 0.8 -3.3 81.0- 7.0 0.7---- 0.0------------
1995-04-19 10.9 17.0 5.9 1.3 70.3- 6.0 1.0---- 0.0------------
1995-04-20 13.9 21.2 5.0 0.6 61.8- 5.3 1.3---- 0.0------------
1995-04-21 13.0 20.9 7.0 4.2 71.3- 2.7 1.0---- 0.0------------
1995-04-22 15.6 23.4 5.4 2.3 60.3- 1.7 1.0---- 0.0------------
1995-04-23 16.0 22.5 6.6 3.3 65.3- 7.0 1.7---- 0.0------------
1995-04-24 16.5 22.6 7.2 3.2 54.3- 5.7 2.0---- 0.0------------
1995-04-25 15.7 23.7 6.9 3.2 56.8- 5.7 0.7---- 0.0------------
1995-04-26 14.4 21.3 7.3 2.5 73.8- 6.0 2.0---- 1.2------------
1995-04-27 12.3 18.1 8.8 5.3 75.0- 4.3 1.7---- 0.0------------
1995-04-28 9.7 17.3 4.5 1.2 89.3- 6.3 1.7---- 0.5------------
1995-04-29 5.3 8.7 4.3 3.5 73.8- 8.0 1.7---- 0.0------------
1995-04-30 7.5 13.1 -1.1 -4.2 57.5- 4.0 0.7---- 0.0------------
1995-05-01 5.5 10.2 0.4 -2.8 63.5- 6.3 2.3---- 0.0------------
1995-05-02 3.8 7.5 -2.3 -6.3 64.3- 6.0 2.0---- 0.0------------
1995-05-03 6.0 12.8 -4.0 -7.5 61.0- 6.0 1.3---- 0.0------------
1995-05-04 11.0 15.6 6.9 2.5 69.3- 6.7 1.7---- 10.5------------
1995-05-05 9.8 16.6 2.8 -0.5 72.3- 5.0 1.0---- 0.0------------
1995-05-06 11.0 16.9 6.3 2.4 82.0- 7.3 1.0---- 1.1------------
1995-05-07 9.6 14.9 4.5 0.4 84.5- 7.0 1.3---- 8.0------------
1995-05-08 8.4 13.2 5.6 4.1 83.5- 6.0 3.3---- 3.6------------
1995-05-09 10.1 14.7 6.7 2.3 79.0- 6.3 4.3---- 4.5------------
1995-05-10 7.2 11.5 4.5 3.0 66.0- 5.3 2.0---- 0.0------------
1995-05-11 7.7 12.7 2.6 0.4 66.5- 6.7 1.0---- 0.0------------
1995-05-12 11.6 18.1 1.9 -1.3 66.3- 3.3 2.3---- 1.4------------
1995-05-13 13.1 14.9 10.5 9.2 96.0- 7.7 3.3---- 7.0------------
1995-05-14 9.5 14.1 5.6 5.1 88.0- 7.3 4.0---- 0.7------------
1995-05-15 6.8 10.7 4.5 3.5 68.3- 6.0 3.0---- 0.0------------
1995-05-16 8.6 14.7 -3.9 -4.2 61.8- 5.0 2.0---- 0.0------------
140.8 ms

 

Źródłem pochodzenia danych jest Instytut Meteorologii i Gospodarki Wodnej – Państwowy Instytut Badawczy. Dane Instytutu Meteorologii i Gospodarki Wodnej – Państwowego Instytutu Badawczego zostały przetworzone.

Dane źródłowe można odnaleźć na stronie https://dane.imgw.pl